Flight Briefing for CPX101

Departure Arrival
Los Angeles International Airport (KLAX)
Click to view FAA NOTAMS
Miami International Airport (KMIA)
Click to view FAA NOTAMS
Departure Time Arrival Time
N/A N/A
Aircraft Distance
B747-400BCF 2091nm
Departure METAR Arrival METAR
KLAX 232253Z 23008KT 10SM OVC032 17/10 A3000 RMK AO2 SLP157 T01670100 KMIA 232253Z 06013G21KT 10SM SCT033 BKN045 28/19 A3007 RMK AO2 SLP183 T02830194
Suggested Route
DOTSS2 CNERY BLH J65 KOFFA J169 TFD J50 ELP J2 JCT J86 LEV Q102 BAGGS SSCOT5


View recent IFR Routes data
Notes



Charts and Procedures

Charts for KLAX
No chart available
Charts for KMIA
No chart available

Windy.com Weather Map